Terminal Aerodrome Forecast
Issued by NWS

Home | Current Version | Previous Version | Text Only | Print | Product List | Glossary On
Versions: 1 2 3 4 5 6 7 8 9 10 11 12 13 14 15
725
FTUS43 KICT 261840 AAA
TAFCNU
TAF AMD
KCNU 261840Z 2619/2718 35006KT P6SM -RA SCT008 OVC020
      TEMPO 2619/2621 BKN008
     FM262200 36007KT P6SM VCSH OVC025
     FM270400 01006KT P6SM OVC040=

USA.gov is the U.S. government's official web portal to all federal, state and local government web resources and services.